RKNN/KAG METAR and TAF weather

Enter ICAO airport designator
Station Type Date Time Source
RKNN METAR 2019/03/26 09:52 UTC NOAA

RKNN 260952Z 12003KT 9999 SKC 12/00 A2999


Station Type Date Time Source
RKNN Decoded METAR 2019/03/26 09:52 UTC NOAA

Kangnung Ab, Korea, South (RKNN) 37-45N 128-57E 6M
Mar 26, 2019 - 05:52 AM EDT / 2019.03.26 0952 UTC
Wind: from the ESE (120 degrees) at 3 MPH (3 KT):0
Visibility: greater than 7 mile(s):0
Sky conditions: clear
Temperature: 53 F (12 C)
Dew Point: 32 F (0 C)
Relative Humidity: 43%
Pressure (altimeter): 29.99 in. Hg (1015 hPa)
ob: RKNN 260952Z 12003KT 9999 SKC 12/00 A2999
cycle: 10

Station Type Date Time Source
RKNN TAF 2013/10/14 20:56 UTC NOAA

TAF
AMD RKNN 142045Z 1420/1524 06006G16KT 4800 -RA BR SCT010 BKN020
BECMG 1423/1424 06006G16KT 3200 -RA BR BKN010 OVC020
BECMG 1511/1512 36010KT 4800 -RA BR BKN025 TX16/1421Z TN07/1520Z

Example: see airport list